Lanzarote > ESTACION METEOROLÓGICA Famara - Teguise

DATOS ACTUALES Online

Ultima actulizacion 28 minutos

20.4 ºC

Temperatura

69

Humedad (%)

1016.84

Presión (mb)

0

Precipitación (mm)

38.9 O

Viento (Km/h)

DATOS DIARIOS

Temperatura últimas 24 horas (ºC)

Humedad últimas 24 horas (%)

Presión atmosférica últimas 24 horas (mb)

Precipitaciones últimas 23 horas (mm)

Viento últimas 24 horas (Km/h)

Hora Temperatura (°C) ºC Precipitación (mm) mm Presión (mb) mb Humedad (%) % Viento (Km/h) km/h
28 - 09:00 20.6 0.1 1016 77 39.7 O
28 - 10:00 21.1 0.1 1017 73 38.1 O
28 - 11:00 21.3 0.1 1017 74 36.3 O
28 - 12:00 21.3 0.1 1017 71 41.3 O
28 - 13:00 21.7 0.1 1017 67 40.4 O
28 - 14:00 22.2 0.1 1017 70 38.2 O
28 - 15:00 21.8 0.1 1017 77 43.2 O
28 - 16:00 21.8 0.1 1016 75 39.3 O
28 - 17:00 22 0.1 1016 70 41.8 O
28 - 18:00 21.7 0.1 1016 74 34.9 O
28 - 19:00 21.3 0.1 1016 78 36.5 O
28 - 20:00 20.9 0.1 1017 76 40.8 O
28 - 21:00 20.9 0.1 1017 78 44.6 O
28 - 22:00 20.7 0.1 1017 79 41 O
28 - 23:00 20.6 0.1 1017 79 38.4 O
29 - 00:00 20.5 0.1 1017 80 45.7 O
29 - 01:00 20.4 0 1017 78 39.6 O
29 - 02:00 20.5 0 1016 76 45.6 O
29 - 03:00 20.4 0 1016 75 43.2 O
29 - 04:00 20.3 0 1016 76 37.6 O
29 - 05:00 20.4 0 1015 74 48.9 O
29 - 06:00 20.2 0 1016 73 43.1 O
29 - 07:00 20.1 0 1016 75 43.7 O
29 - 08:00 20.3 0 1017 73 39.6 O
29 - 09:00 20.4 0 1017 69 38.9 O
Apalmet utiliza cookies propias y de terceros para mejorar la usabilidad y la experiencia web. Política de cookies.